Terminal Aerodrome Forecast
Issued by NWS

Home | Current Version | Previous Version | Text Only | Print | Product List | Glossary On
Versions: 1 2 3 4 5 6 7 8 9 10 11 12 13 14 15 16 17 18 19 20 21 22 23 24 25 26 27 28 29 30
000
FTUS45 KPSR 241700
TAFIWA
TAF
KIWA 241730Z 2418/2518 12008KT P6SM FEW100 SCT150 BKN250
      TEMPO 2418/2420 15012G18KT
     FM242100 21008KT P6SM FEW140 SCT250
     FM250100 25007KT P6SM FEW140 SCT250
     FM250700 VRB05KT P6SM FEW080 SCT250=

USA.gov is the U.S. government's official web portal to all federal, state and local government web resources and services.